createdAt,value
2022-11-29T00:00:06.991Z,59.00
2022-11-29T00:02:54.031Z,57.97
2022-11-29T00:05:41.227Z,55.17
2022-11-29T00:08:28.230Z,59.20
2022-11-29T00:11:39.283Z,55.83
2022-11-29T00:14:27.849Z,57.93
2022-11-29T00:17:14.907Z,58.23
2022-11-29T00:20:01.852Z,55.67
2022-11-29T00:22:49.014Z,49.27
2022-11-29T00:25:38.488Z,50.43
2022-11-29T00:28:25.452Z,55.20
2022-11-29T00:31:27.211Z,60.07
2022-11-29T00:34:14.267Z,52.20
2022-11-29T00:37:01.265Z,53.07
2022-11-29T00:39:48.310Z,51.33
2022-11-29T00:42:35.228Z,51.47
2022-11-29T00:45:22.198Z,52.27
2022-11-29T00:48:09.226Z,46.73
2022-11-29T00:50:56.286Z,52.90
2022-11-29T00:53:43.289Z,53.67
2022-11-29T00:56:30.345Z,53.03
2022-11-29T00:59:17.424Z,51.93
2022-11-29T01:02:04.478Z,47.30
2022-11-29T01:04:51.548Z,42.90
2022-11-29T01:07:38.508Z,45.87
2022-11-29T01:10:26.455Z,47.70
2022-11-29T01:13:13.428Z,51.67
2022-11-29T01:16:00.617Z,45.00
2022-11-29T01:18:47.837Z,48.33
2022-11-29T01:21:34.833Z,49.50
2022-11-29T01:24:22.386Z,53.53
2022-11-29T01:27:10.148Z,45.30
2022-11-29T01:29:57.211Z,47.40
2022-11-29T01:32:44.230Z,42.67
2022-11-29T01:35:31.140Z,51.67
2022-11-29T01:38:18.797Z,56.37
2022-11-29T01:41:13.170Z,44.17
2022-11-29T01:44:04.772Z,52.17
2022-11-29T01:46:53.382Z,49.30
2022-11-29T01:49:46.860Z,51.20
2022-11-29T01:52:34.049Z,50.27
2022-11-29T01:55:21.403Z,45.10
2022-11-29T01:58:09.307Z,48.47
2022-11-29T02:00:57.719Z,54.60
2022-11-29T02:03:44.802Z,48.50
2022-11-29T02:06:32.316Z,62.97
2022-11-29T02:09:22.313Z,47.33
2022-11-29T02:12:30.751Z,45.20
2022-11-29T02:15:44.074Z,50.23
2022-11-29T02:19:02.071Z,48.47
2022-11-29T02:21:56.596Z,42.33
2022-11-29T02:25:06.786Z,46.43
2022-11-29T02:27:56.749Z,57.10
2022-11-29T02:31:13.202Z,47.50
2022-11-29T02:34:03.004Z,49.27
2022-11-29T02:36:49.873Z,48.23
2022-11-29T02:39:55.055Z,49.07
2022-11-29T02:43:09.560Z,52.53
2022-11-29T02:46:14.981Z,49.80
2022-11-29T02:49:12.217Z,37.93
2022-11-29T02:52:02.957Z,46.70
2022-11-29T02:55:09.562Z,43.63
2022-11-29T02:58:17.168Z,40.60
2022-11-29T03:01:15.873Z,47.67
2022-11-29T03:04:16.507Z,41.40
2022-11-29T03:07:20.244Z,41.77
2022-11-29T03:10:25.812Z,41.40
2022-11-29T03:13:32.973Z,42.80
2022-11-29T03:16:28.933Z,44.63
2022-11-29T03:19:37.708Z,52.43
2022-11-29T03:22:58.101Z,42.17
2022-11-29T03:26:08.952Z,45.00
2022-11-29T03:29:14.478Z,41.33
2022-11-29T03:32:22.778Z,37.77
2022-11-29T03:35:29.728Z,43.17
2022-11-29T03:38:27.123Z,39.63
2022-11-29T03:41:32.928Z,40.07
2022-11-29T03:44:27.935Z,39.93
2022-11-29T03:47:24.296Z,39.47
2022-11-29T03:50:20.847Z,44.43
2022-11-29T03:53:45.563Z,42.80
2022-11-29T03:56:36.780Z,38.67
2022-11-29T03:59:23.670Z,39.60
2022-11-29T04:02:16.749Z,42.80
2022-11-29T04:05:03.653Z,38.10
2022-11-29T04:08:08.789Z,41.87
2022-11-29T04:11:23.007Z,37.83
2022-11-29T04:14:34.703Z,35.67
2022-11-29T04:17:36.601Z,40.97
2022-11-29T04:20:41.216Z,45.53
2022-11-29T04:23:52.396Z,35.97
2022-11-29T04:26:39.269Z,36.23
2022-11-29T04:29:48.093Z,42.50
2022-11-29T04:33:01.341Z,41.83
2022-11-29T04:36:31.168Z,41.30
2022-11-29T04:39:42.992Z,38.73
2022-11-29T04:42:51.207Z,43.47
2022-11-29T04:45:59.200Z,38.90
2022-11-29T04:49:23.835Z,36.03
2022-11-29T04:52:48.492Z,38.70
2022-11-29T04:55:57.312Z,39.87
2022-11-29T04:59:39.790Z,43.83
2022-11-29T05:02:38.329Z,45.70
2022-11-29T05:05:31.375Z,48.03
2022-11-29T05:08:43.532Z,42.90
2022-11-29T05:11:49.569Z,46.97
2022-11-29T05:15:10.464Z,41.37
2022-11-29T05:18:16.648Z,55.27
2022-11-29T05:21:14.369Z,41.47
2022-11-29T05:24:21.570Z,43.97
2022-11-29T05:27:33.488Z,44.03
2022-11-29T05:30:23.841Z,44.63
2022-11-29T05:33:35.217Z,38.77
2022-11-29T05:36:28.309Z,42.77
2022-11-29T05:39:33.953Z,44.23
2022-11-29T05:42:45.967Z,39.10
2022-11-29T05:46:19.281Z,41.30
2022-11-29T05:49:21.327Z,39.97
2022-11-29T05:52:48.268Z,40.77
2022-11-29T05:55:51.883Z,43.13
2022-11-29T05:58:53.031Z,37.77
2022-11-29T06:02:34.475Z,40.43
2022-11-29T06:05:30.539Z,36.27
2022-11-29T06:08:29.539Z,41.57
2022-11-29T06:11:24.263Z,39.47
2022-11-29T06:14:14.024Z,45.07
2022-11-29T06:17:16.121Z,47.13
2022-11-29T06:20:19.228Z,42.57
2022-11-29T06:23:24.190Z,44.90
2022-11-29T06:26:25.359Z,49.37
2022-11-29T06:29:49.504Z,50.23
2022-11-29T06:32:48.999Z,43.53
2022-11-29T06:35:54.212Z,47.40
2022-11-29T06:38:41.720Z,53.07
2022-11-29T06:41:28.968Z,53.50
2022-11-29T06:44:16.321Z,49.00
2022-11-29T06:47:09.029Z,66.47
2022-11-29T06:50:20.185Z,70.43
2022-11-29T06:53:47.769Z,58.83
2022-11-29T06:56:53.532Z,55.50
2022-11-29T06:59:47.624Z,54.07
2022-11-29T07:03:14.161Z,65.23
2022-11-29T07:06:10.307Z,75.60
2022-11-29T07:09:01.738Z,79.00
2022-11-29T07:11:49.016Z,83.77
2022-11-29T07:14:36.385Z,91.70
2022-11-29T07:17:58.707Z,65.10
2022-11-29T07:20:51.631Z,67.40
2022-11-29T07:23:42.369Z,58.97
2022-11-29T07:26:45.738Z,62.77
2022-11-29T07:29:45.907Z,55.33
2022-11-29T07:33:03.551Z,52.87
2022-11-29T07:35:56.439Z,43.73
2022-11-29T07:39:31.128Z,46.77
2022-11-29T07:42:20.966Z,39.67
2022-11-29T07:45:17.804Z,40.20
2022-11-29T07:48:05.591Z,42.77
2022-11-29T07:50:54.231Z,47.93
2022-11-29T07:53:43.344Z,42.63
2022-11-29T07:56:30.352Z,40.47
2022-11-29T07:59:17.567Z,41.53
2022-11-29T08:02:10.149Z,41.93
2022-11-29T08:04:58.618Z,44.00
2022-11-29T08:07:47.410Z,39.60
2022-11-29T08:10:35.584Z,39.27
2022-11-29T08:13:22.721Z,41.17
2022-11-29T08:16:15.181Z,37.80
2022-11-29T08:19:02.339Z,38.77
2022-11-29T08:21:51.187Z,41.67
2022-11-29T08:24:38.262Z,34.33
2022-11-29T08:27:25.375Z,40.47
2022-11-29T08:30:12.741Z,32.27
2022-11-29T08:32:59.776Z,33.90
2022-11-29T08:35:46.781Z,36.97
2022-11-29T08:38:33.780Z,38.73
2022-11-29T08:41:20.818Z,39.90
2022-11-29T08:44:07.990Z,36.80
2022-11-29T08:47:13.485Z,37.10
2022-11-29T08:50:03.561Z,37.27
2022-11-29T08:53:10.090Z,36.73
2022-11-29T08:55:59.934Z,36.23
2022-11-29T08:58:47.501Z,39.23
2022-11-29T09:01:34.614Z,35.93
2022-11-29T09:04:21.680Z,36.80
2022-11-29T09:07:08.651Z,37.33
2022-11-29T09:09:55.656Z,37.73
2022-11-29T09:12:44.260Z,40.30
2022-11-29T09:15:31.258Z,41.97
2022-11-29T09:18:18.197Z,40.83
2022-11-29T09:21:09.888Z,42.00
2022-11-29T09:23:59.855Z,41.17
2022-11-29T09:26:48.515Z,45.80
2022-11-29T09:29:35.608Z,44.63
2022-11-29T09:32:22.715Z,43.87
2022-11-29T09:35:10.723Z,43.33
2022-11-29T09:37:57.797Z,37.37
2022-11-29T09:41:03.259Z,43.20
2022-11-29T09:44:12.016Z,49.47
2022-11-29T09:47:23.340Z,43.00
2022-11-29T09:50:45.825Z,46.10
2022-11-29T09:53:47.703Z,47.17
2022-11-29T09:56:41.361Z,43.10
2022-11-29T09:59:45.805Z,55.67
2022-11-29T10:02:47.974Z,46.33
2022-11-29T10:05:44.288Z,56.77
2022-11-29T10:08:48.605Z,51.57
2022-11-29T10:11:43.286Z,55.63
2022-11-29T10:14:38.977Z,51.17
2022-11-29T10:17:40.818Z,52.43
2022-11-29T10:20:39.699Z,50.67
2022-11-29T10:23:37.256Z,50.53
2022-11-29T10:26:26.502Z,47.23
2022-11-29T10:29:16.587Z,54.53
2022-11-29T10:32:10.430Z,50.60
2022-11-29T10:35:00.687Z,56.20
2022-11-29T10:38:14.517Z,51.43
2022-11-29T10:41:13.597Z,63.67
2022-11-29T10:44:00.587Z,54.60
2022-11-29T10:46:47.891Z,61.00
2022-11-29T10:49:37.287Z,56.63
2022-11-29T10:52:24.295Z,56.23
2022-11-29T10:55:14.980Z,58.43
2022-11-29T10:58:24.700Z,51.77
2022-11-29T11:01:14.202Z,51.33
2022-11-29T11:04:04.486Z,48.47
2022-11-29T11:06:57.082Z,48.07
2022-11-29T11:09:56.424Z,51.63
2022-11-29T11:13:01.465Z,50.03
2022-11-29T11:15:48.482Z,49.67
2022-11-29T11:18:36.963Z,47.90
2022-11-29T11:21:26.015Z,43.87
2022-11-29T11:24:25.255Z,40.83
2022-11-29T11:27:12.313Z,47.10
2022-11-29T11:30:00.664Z,46.80
2022-11-29T11:33:26.680Z,46.07
2022-11-29T11:36:19.610Z,46.80
2022-11-29T11:39:19.576Z,46.50
2022-11-29T11:42:31.536Z,44.63
2022-11-29T11:45:35.116Z,46.17
2022-11-29T11:48:22.743Z,53.07
2022-11-29T11:51:22.497Z,50.23
2022-11-29T11:54:15.523Z,51.63
2022-11-29T11:57:03.414Z,54.47
2022-11-29T11:59:52.816Z,57.73
2022-11-29T12:02:41.035Z,55.63
2022-11-29T12:05:28.221Z,50.40
2022-11-29T12:08:16.083Z,53.33
2022-11-29T12:11:07.785Z,52.87
2022-11-29T12:13:59.332Z,53.43
2022-11-29T12:16:48.965Z,57.20
2022-11-29T12:19:47.096Z,49.67
2022-11-29T12:23:19.572Z,54.93
2022-11-29T12:26:34.534Z,50.07
2022-11-29T12:29:26.065Z,46.60
2022-11-29T12:32:32.197Z,44.97
2022-11-29T12:35:56.650Z,43.33
2022-11-29T12:39:03.649Z,49.40
2022-11-29T12:41:54.324Z,44.10
2022-11-29T12:44:56.428Z,41.13
2022-11-29T12:47:46.297Z,42.40
2022-11-29T12:50:54.910Z,42.00
2022-11-29T12:53:47.773Z,43.27
2022-11-29T12:56:49.540Z,42.70
2022-11-29T13:00:03.837Z,40.80
2022-11-29T13:03:17.939Z,41.83
2022-11-29T13:06:45.250Z,37.90
2022-11-29T13:09:50.860Z,43.67
2022-11-29T13:12:47.849Z,42.17
2022-11-29T13:15:41.148Z,44.60
2022-11-29T13:18:47.162Z,44.67
2022-11-29T13:21:46.330Z,56.50
2022-11-29T13:24:44.544Z,52.70
2022-11-29T13:27:42.449Z,56.00
2022-11-29T13:30:29.733Z,57.13
2022-11-29T13:33:24.853Z,66.17
2022-11-29T13:36:56.669Z,63.73
2022-11-29T13:40:05.545Z,64.73
2022-11-29T13:43:11.254Z,72.00
2022-11-29T13:46:13.582Z,71.63
2022-11-29T13:49:00.683Z,79.07
2022-11-29T13:51:47.871Z,71.27
2022-11-29T13:54:34.944Z,64.70
2022-11-29T13:57:21.908Z,68.20
2022-11-29T14:00:26.913Z,62.03
2022-11-29T14:03:28.737Z,69.80
2022-11-29T14:06:38.225Z,60.10
2022-11-29T14:09:32.893Z,78.20
2022-11-29T14:12:38.439Z,80.37
2022-11-29T14:15:32.294Z,69.10
2022-11-29T14:18:37.618Z,75.90
2022-11-29T14:21:24.560Z,83.90
2022-11-29T14:24:36.171Z,68.30
2022-11-29T14:27:23.050Z,65.10
2022-11-29T14:30:55.707Z,72.23
2022-11-29T14:34:06.954Z,61.03
2022-11-29T14:37:04.917Z,65.30
2022-11-29T14:39:57.535Z,72.47
2022-11-29T14:42:48.704Z,76.30
2022-11-29T14:45:35.678Z,89.03
2022-11-29T14:48:33.107Z,77.80
2022-11-29T14:51:20.987Z,64.60
2022-11-29T14:54:20.062Z,74.67
2022-11-29T14:57:38.236Z,56.97
2022-11-29T15:00:38.436Z,64.93
2022-11-29T15:03:33.114Z,74.83
2022-11-29T15:06:28.038Z,62.97
2022-11-29T15:09:21.014Z,66.07
2022-11-29T15:12:28.488Z,60.03
2022-11-29T15:15:43.029Z,63.93
2022-11-29T15:19:00.629Z,78.00
2022-11-29T15:22:19.567Z,68.23
2022-11-29T15:25:13.654Z,61.40
2022-11-29T15:28:08.704Z,104.60
2022-11-29T15:31:10.344Z,74.83
2022-11-29T15:33:57.349Z,69.47
2022-11-29T15:36:44.457Z,71.30
2022-11-29T15:39:36.630Z,76.67
2022-11-29T15:42:25.312Z,58.93
2022-11-29T15:45:38.464Z,62.90
2022-11-29T15:48:31.201Z,59.07
2022-11-29T15:51:33.842Z,76.40
2022-11-29T15:54:30.993Z,51.67
2022-11-29T15:57:35.159Z,65.10
2022-11-29T16:00:28.200Z,63.00
2022-11-29T16:03:30.046Z,65.87
2022-11-29T16:06:39.966Z,83.07
2022-11-29T16:09:49.428Z,60.73
2022-11-29T16:12:51.918Z,52.63
2022-11-29T16:15:39.618Z,67.23
2022-11-29T16:18:26.661Z,67.37
2022-11-29T16:21:31.227Z,69.13
2022-11-29T16:24:21.950Z,70.50
2022-11-29T16:27:08.988Z,59.47
2022-11-29T16:29:56.110Z,63.23
2022-11-29T16:32:44.268Z,56.37
2022-11-29T16:35:36.419Z,67.07
2022-11-29T16:38:24.351Z,71.00
2022-11-29T16:41:38.935Z,78.83
2022-11-29T16:45:00.227Z,73.13
2022-11-29T16:47:57.935Z,84.23
2022-11-29T16:50:46.171Z,81.87
2022-11-29T16:53:35.894Z,79.10
2022-11-29T16:56:25.541Z,87.47
2022-11-29T16:59:20.879Z,77.20
2022-11-29T17:02:15.850Z,80.53
2022-11-29T17:05:02.925Z,79.43
2022-11-29T17:07:50.848Z,92.13
2022-11-29T17:10:38.418Z,84.20
2022-11-29T17:13:25.395Z,89.33
2022-11-29T17:16:15.456Z,86.10
2022-11-29T17:19:02.532Z,82.37
2022-11-29T17:21:50.629Z,76.37
2022-11-29T17:24:43.532Z,86.10
2022-11-29T17:27:35.522Z,77.70
2022-11-29T17:30:22.579Z,72.93
2022-11-29T17:33:09.570Z,74.73
2022-11-29T17:35:56.548Z,81.03
2022-11-29T17:38:45.320Z,81.97
2022-11-29T17:41:33.120Z,79.57
2022-11-29T17:44:20.067Z,79.90
2022-11-29T17:47:07.016Z,91.33
2022-11-29T17:49:54.008Z,90.90
2022-11-29T17:52:41.624Z,79.80
2022-11-29T17:55:29.779Z,76.37
2022-11-29T17:58:16.867Z,83.77
2022-11-29T18:01:12.599Z,81.40
2022-11-29T18:04:02.047Z,75.93
2022-11-29T18:06:51.848Z,86.13
2022-11-29T18:09:38.980Z,96.93
2022-11-29T18:12:26.188Z,77.20
2022-11-29T18:15:13.376Z,78.70
2022-11-29T18:18:00.524Z,72.07
2022-11-29T18:20:47.641Z,72.47
2022-11-29T18:23:38.966Z,83.10
2022-11-29T18:26:27.316Z,89.90
2022-11-29T18:29:14.890Z,82.00
2022-11-29T18:32:02.035Z,81.77
2022-11-29T18:34:49.340Z,88.60
2022-11-29T18:38:13.021Z,72.70
2022-11-29T18:40:45.886Z,77.10
2022-11-29T18:43:32.991Z,82.80
2022-11-29T18:46:20.102Z,90.33
2022-11-29T18:49:09.146Z,85.73
2022-11-29T18:51:56.267Z,88.83
2022-11-29T18:54:43.555Z,75.83
2022-11-29T18:57:30.943Z,86.00
2022-11-29T19:00:18.276Z,75.10
2022-11-29T19:03:05.407Z,67.47
2022-11-29T19:05:54.407Z,68.00
2022-11-29T19:08:42.186Z,65.40
2022-11-29T19:11:31.683Z,67.77
2022-11-29T19:14:19.653Z,66.70
2022-11-29T19:17:06.857Z,70.17
2022-11-29T19:19:54.274Z,74.97
2022-11-29T19:22:41.337Z,75.60
2022-11-29T19:25:28.460Z,78.20
2022-11-29T19:28:15.963Z,73.57
2022-11-29T19:31:03.149Z,67.20
2022-11-29T19:33:52.848Z,71.53
2022-11-29T19:36:45.249Z,72.60
2022-11-29T19:39:34.529Z,74.57
2022-11-29T19:42:22.319Z,69.57
2022-11-29T19:45:18.687Z,68.27
2022-11-29T19:48:06.054Z,71.43
2022-11-29T19:50:53.133Z,67.90
2022-11-29T19:53:40.345Z,71.07
2022-11-29T19:56:28.839Z,68.00
2022-11-29T19:59:16.023Z,64.57
2022-11-29T20:02:03.141Z,63.53
2022-11-29T20:04:50.686Z,67.77
2022-11-29T20:07:37.929Z,66.40
2022-11-29T20:10:25.879Z,68.70
2022-11-29T20:13:13.069Z,64.60
2022-11-29T20:16:05.139Z,71.27
2022-11-29T20:18:53.269Z,67.70
2022-11-29T20:21:45.846Z,67.07
2022-11-29T20:24:39.041Z,85.33
2022-11-29T20:27:28.527Z,66.77
2022-11-29T20:30:15.842Z,71.67
2022-11-29T20:33:03.842Z,74.97
2022-11-29T20:36:00.330Z,79.03
2022-11-29T20:39:07.669Z,69.20
2022-11-29T20:41:57.714Z,77.97
2022-11-29T20:44:53.949Z,105.17
2022-11-29T20:47:53.330Z,72.07
2022-11-29T20:50:42.655Z,74.60
2022-11-29T20:53:44.325Z,64.10
2022-11-29T20:56:31.385Z,71.97
2022-11-29T20:59:18.433Z,67.73
2022-11-29T21:02:05.513Z,73.77
2022-11-29T21:04:52.516Z,80.30
2022-11-29T21:07:39.624Z,78.23
2022-11-29T21:10:32.677Z,83.00
2022-11-29T21:13:25.293Z,70.33
2022-11-29T21:16:16.132Z,87.97
2022-11-29T21:19:09.555Z,75.03
2022-11-29T21:22:04.465Z,75.67
2022-11-29T21:24:57.498Z,74.13
2022-11-29T21:27:44.681Z,72.97
2022-11-29T21:30:31.836Z,85.47
2022-11-29T21:33:19.029Z,72.13
2022-11-29T21:36:06.928Z,79.43
2022-11-29T21:38:55.267Z,78.70
2022-11-29T21:41:42.746Z,95.30
2022-11-29T21:44:29.666Z,79.30
2022-11-29T21:47:16.662Z,75.13
2022-11-29T21:50:04.064Z,74.40
2022-11-29T21:52:52.553Z,72.83
2022-11-29T21:55:39.462Z,79.27
2022-11-29T21:58:28.800Z,88.90
2022-11-29T22:01:18.123Z,78.37
2022-11-29T22:04:05.175Z,86.90
2022-11-29T22:06:52.193Z,81.83
2022-11-29T22:09:39.284Z,85.73
2022-11-29T22:12:34.089Z,67.00
2022-11-29T22:15:24.982Z,80.07
2022-11-29T22:18:12.889Z,85.37
2022-11-29T22:21:08.190Z,79.67
2022-11-29T22:23:55.372Z,87.10
2022-11-29T22:26:44.452Z,81.90
2022-11-29T22:29:31.659Z,64.97
2022-11-29T22:32:18.751Z,78.90
2022-11-29T22:35:06.073Z,77.90
2022-11-29T22:37:52.994Z,82.83
2022-11-29T22:40:40.656Z,77.50
2022-11-29T22:43:29.272Z,78.77
2022-11-29T22:46:21.757Z,84.33
2022-11-29T22:49:09.247Z,82.27
2022-11-29T22:51:56.581Z,77.33
2022-11-29T22:54:43.686Z,72.47
2022-11-29T22:57:30.984Z,71.83
2022-11-29T23:00:18.264Z,80.20
2022-11-29T23:03:05.327Z,72.27
2022-11-29T23:05:52.298Z,75.93
2022-11-29T23:08:40.639Z,77.63
2022-11-29T23:11:30.366Z,70.33
2022-11-29T23:14:18.305Z,81.27
2022-11-29T23:17:05.579Z,64.40
2022-11-29T23:19:52.787Z,68.20
2022-11-29T23:22:39.869Z,58.67
2022-11-29T23:25:26.959Z,72.30
2022-11-29T23:28:14.495Z,97.53
2022-11-29T23:31:04.504Z,91.30
2022-11-29T23:33:51.887Z,83.43
2022-11-29T23:36:39.134Z,72.27
2022-11-29T23:39:27.203Z,71.97
2022-11-29T23:42:14.610Z,73.20
2022-11-29T23:45:01.728Z,67.87
2022-11-29T23:47:49.092Z,69.67
2022-11-29T23:50:36.379Z,82.87
2022-11-29T23:53:23.601Z,61.33
2022-11-29T23:56:17.237Z,90.57
2022-11-29T23:59:04.544Z,67.63
